Flight Track Log - Related Links

Times and Time Zones

All times are in EDT time to prevent confusion due to time zone crossing. See the EJA396 flight status page for this flight to view local times or setup timezone preferences in your user account.

Time Position Orientation Groundspeed Altitude Reporting Facility
EDT Latitude Longitude Course Direction KTS MPH feet Rate Location/Type
Sun 02:05:36 PM 42.3667 -70.9833 82° East 155 178 800  Level KA90
Sun 02:08:00 PM 42.3883 -70.7789 82° East 255 293 6,800 2,529 Climbing Boston Center
Sun 02:09:00 PM 42.3292 -70.7242 146° Southeast 240 276 9,400 2,300 Climbing Boston Center
Sun 02:10:00 PM 42.2483 -70.7656 201° Southwest 222 255 11,400 2,150 Climbing Boston Center
Sun 02:11:00 PM 42.2022 -70.8931 244° Southwest 277 319 13,700 1,400 Climbing Boston Center
Sun 02:12:00 PM 42.1872 -71.0111 260° West 319 367 14,200 950 Climbing Boston Center
Sun 02:13:00 PM 42.1639 -71.1600 258° West 364 419 15,600 900 Climbing Boston Center
Sun 02:14:00 PM 42.1486 -71.2808 260° West 376 433 16,000 200 Climbing Boston Center
Sun 02:15:00 PM 42.1292 -71.4294 260° West 370 426 16,000 50 Level Boston Center
Sun 02:16:00 PM 42.1114 -71.5503 259° West 375 432 16,100 50 Climbing Boston Center
Sun 02:17:00 PM 42.0914 -71.6819 258° West 375 432 16,100  Level Boston Center
Sun 02:18:00 PM 42.0736 -71.8219 260° West 359 413 16,100  Level Boston Center
Sun 02:19:00 PM 42.0514 -71.9508 257° West 353 406 16,100  Level Boston Center
Sun 02:20:00 PM 42.0350 -72.0656 259° West 360 414 16,100  Level Boston Center
Sun 02:21:00 PM 42.0147 -72.2081 259° West 352 405 16,100 -50 Level Boston Center
Sun 02:22:00 PM 41.9981 -72.3061 257° West 352 405 16,000 -50 Descending Boston Center
Sun 02:23:00 PM 41.9753 -72.4625 259° West 358 412 16,000  Level Boston Center
Sun 02:24:00 PM 41.9586 -72.5742 259° West 353 406 16,000  Level Boston Center
Sun 02:25:00 PM 41.9333 -72.7053 256° West 353 406 16,000  Level Boston Center
Sun 02:26:00 PM 41.8808 -72.8333 241° Southwest 353 406 16,000 -450 Level Boston Center
Sun 02:27:00 PM 41.8325 -72.9472 240° Southwest 353 406 15,100 -1,350 Descending Boston Center
Sun 02:28:00 PM 41.7881 -73.0581 242° Southwest 347 399 13,300 -1,500 Descending Boston Center
Sun 02:29:00 PM 41.7478 -73.1553 241° Southwest 347 399 12,100 -650 Descending Boston Center
Sun 02:30:00 PM 41.6969 -73.2742 240° Southwest 336 387 12,000 -350 Descending Boston Center
Sun 02:31:00 PM 41.6525 -73.3764 240° Southwest 326 375 11,400 -450 Descending Boston Center
Sun 02:32:00 PM 41.6100 -73.4756 240° Southwest 314 361 11,100 -200 Descending Boston Center
Sun 02:33:00 PM 41.5672 -73.5778 241° Southwest 314 361 11,000 -417 Descending Boston Center
Sun 02:33:55 PM 41.5333 -73.6667 243° Southwest 289 333 10,300 -1,400 Descending New York TRACON
Sun 02:35:00 PM 41.4833 -73.7500 231° Southwest 270 311 8,200 -2,000 Descending New York TRACON
Sun 02:36:01 PM 41.4333 -73.8000 217° Southwest 262 302 6,100 -2,033 Descending New York TRACON
Sun 02:37:01 PM 41.3667 -73.8333 201° Southwest 248 285 4,100 -1,105 Descending New York TRACON
Sun 02:37:55 PM 41.3167 -73.8667 207° Southwest 210 242 4,000 -650 Descending New York TRACON
Sun 02:39:01 PM 41.2500 -73.8500 169° South 240 276 2,800 -476 Descending New York TRACON
Sun 02:40:01 PM 41.2000 -73.8167 153° Southeast 176 203 3,000 -150 Climbing New York TRACON
Sun 02:41:01 PM 41.1667 -73.7833 143° Southeast 137 158 2,500 -500 Descending New York TRACON
Sun 02:42:01 PM 41.1333 -73.7667 159° South 114 131 2,000 -550 Descending New York TRACON
Sun 02:43:01 PM 41.1167 -73.7500 143° Southeast 106 122 1,400 -600 Descending New York TRACON
Sun 02:44:01 PM 41.0833 -73.7167 143° Southeast 110 127 800 -600 Descending New York TRACON
Sun 02:46:00 PM 41.0667 -73.7000 143° Southeast  Level FlightAware Approximate
Sun 02:53:00 PM 41.0669 -73.7076 143° Southeast  Level Estimated

Login

Don't have an account? Register now (free) for customized features, flight alerts, and more!